sensor_id;sensor_type;location;lat;lon;timestamp;pressure;altitude;pressure_sealevel;temperature;humidity
17785;BME280;9016;53.582;10.062;2022-07-29T00:01:45;101976.13;;;16.40;64.95
17785;BME280;9016;53.582;10.062;2022-07-29T00:04:13;101983.84;;;16.32;65.22
17785;BME280;9016;53.582;10.062;2022-07-29T00:06:41;101978.94;;;16.25;65.50
17785;BME280;9016;53.582;10.062;2022-07-29T00:09:09;101972.50;;;16.27;65.56
17785;BME280;9016;53.582;10.062;2022-07-29T00:11:37;101975.84;;;16.31;65.17
17785;BME280;9016;53.582;10.062;2022-07-29T00:14:07;101973.47;;;16.26;65.47
17785;BME280;9016;53.582;10.062;2022-07-29T00:16:36;101968.09;;;16.26;65.27
17785;BME280;9016;53.582;10.062;2022-07-29T00:19:04;101972.38;;;16.29;65.11
17785;BME280;9016;53.582;10.062;2022-07-29T00:21:33;101971.53;;;16.28;64.73
17785;BME280;9016;53.582;10.062;2022-07-29T00:24:01;101967.22;;;16.26;64.89
17785;BME280;9016;53.582;10.062;2022-07-29T00:26:29;101967.22;;;16.26;64.75
17785;BME280;9016;53.582;10.062;2022-07-29T00:28:59;101972.03;;;16.21;65.07
17785;BME280;9016;53.582;10.062;2022-07-29T00:31:49;101961.00;;;16.11;65.60
17785;BME280;9016;53.582;10.062;2022-07-29T00:34:17;101966.97;;;16.02;65.65
17785;BME280;9016;53.582;10.062;2022-07-29T00:37:03;101966.75;;;16.05;65.51
17785;BME280;9016;53.582;10.062;2022-07-29T00:39:33;101957.75;;;16.06;65.44
17785;BME280;9016;53.582;10.062;2022-07-29T00:42:02;101962.53;;;16.01;65.62
17785;BME280;9016;53.582;10.062;2022-07-29T00:44:32;101952.53;;;16.03;65.59
17785;BME280;9016;53.582;10.062;2022-07-29T00:47:05;101950.44;;;15.94;65.47
17785;BME280;9016;53.582;10.062;2022-07-29T00:49:33;101952.34;;;15.92;65.73
17785;BME280;9016;53.582;10.062;2022-07-29T00:52:02;101962.06;;;15.95;65.67
17785;BME280;9016;53.582;10.062;2022-07-29T00:54:30;101951.41;;;15.93;65.34
17785;BME280;9016;53.582;10.062;2022-07-29T00:56:59;101953.22;;;15.93;65.50
17785;BME280;9016;53.582;10.062;2022-07-29T00:59:27;101957.84;;;15.91;65.60
17785;BME280;9016;53.582;10.062;2022-07-29T01:02:01;101948.16;;;15.88;65.57
17785;BME280;9016;53.582;10.062;2022-07-29T01:04:32;101944.09;;;15.81;65.95
17785;BME280;9016;53.582;10.062;2022-07-29T01:07:00;101942.97;;;15.71;65.99
17785;BME280;9016;53.582;10.062;2022-07-29T01:09:29;101938.75;;;15.67;66.27
17785;BME280;9016;53.582;10.062;2022-07-29T01:12:13;101944.88;;;15.69;66.44
17785;BME280;9016;53.582;10.062;2022-07-29T01:14:43;101936.53;;;15.59;66.60
17785;BME280;9016;53.582;10.062;2022-07-29T01:17:16;101938.16;;;15.62;66.22
17785;BME280;9016;53.582;10.062;2022-07-29T01:19:53;101932.59;;;15.65;66.03
17785;BME280;9016;53.582;10.062;2022-07-29T01:22:49;101933.63;;;15.62;66.25
17785;BME280;9016;53.582;10.062;2022-07-29T01:25:44;101929.03;;;15.64;66.12
17785;BME280;9016;53.582;10.062;2022-07-29T01:31:48;101930.59;;;15.54;66.19
17785;BME280;9016;53.582;10.062;2022-07-29T01:34:31;101916.38;;;15.52;66.24
17785;BME280;9016;53.582;10.062;2022-07-29T01:37:07;101908.00;;;15.57;65.80
17785;BME280;9016;53.582;10.062;2022-07-29T01:39:38;101909.75;;;15.58;66.21
17785;BME280;9016;53.582;10.062;2022-07-29T01:42:14;101907.84;;;15.60;65.75
17785;BME280;9016;53.582;10.062;2022-07-29T01:44:48;101909.56;;;15.61;65.69
17785;BME280;9016;53.582;10.062;2022-07-29T01:47:24;101901.69;;;15.58;66.10
17785;BME280;9016;53.582;10.062;2022-07-29T01:49:56;101911.66;;;15.70;65.82
17785;BME280;9016;53.582;10.062;2022-07-29T01:52:31;101907.72;;;15.75;65.78
17785;BME280;9016;53.582;10.062;2022-07-29T01:55:04;101904.25;;;15.73;65.59
17785;BME280;9016;53.582;10.062;2022-07-29T01:57:33;101901.09;;;15.81;65.31
17785;BME280;9016;53.582;10.062;2022-07-29T02:00:04;101902.63;;;15.85;65.32
17785;BME280;9016;53.582;10.062;2022-07-29T02:02:35;101892.09;;;15.82;65.18
17785;BME280;9016;53.582;10.062;2022-07-29T02:05:07;101898.34;;;15.82;65.84
17785;BME280;9016;53.582;10.062;2022-07-29T02:07:37;101889.19;;;15.85;65.63
17785;BME280;9016;53.582;10.062;2022-07-29T02:10:09;101883.72;;;15.86;65.55
17785;BME280;9016;53.582;10.062;2022-07-29T02:12:39;101884.31;;;15.92;65.04
17785;BME280;9016;53.582;10.062;2022-07-29T02:15:16;101881.50;;;15.93;64.88
17785;BME280;9016;53.582;10.062;2022-07-29T02:17:49;101885.47;;;15.88;65.35
17785;BME280;9016;53.582;10.062;2022-07-29T02:20:19;101882.66;;;15.89;65.94
17785;BME280;9016;53.582;10.062;2022-07-29T02:22:50;101885.91;;;15.94;65.95
17785;BME280;9016;53.582;10.062;2022-07-29T02:25:21;101878.63;;;15.96;65.62
17785;BME280;9016;53.582;10.062;2022-07-29T02:27:50;101884.78;;;15.84;66.24
17785;BME280;9016;53.582;10.062;2022-07-29T02:30:19;101878.34;;;15.86;66.08
17785;BME280;9016;53.582;10.062;2022-07-29T02:32:51;101881.69;;;15.90;65.82
17785;BME280;9016;53.582;10.062;2022-07-29T02:35:21;101880.75;;;15.91;65.95
17785;BME280;9016;53.582;10.062;2022-07-29T02:37:50;101873.72;;;15.88;66.33
17785;BME280;9016;53.582;10.062;2022-07-29T02:40:34;101872.97;;;15.86;66.07
17785;BME280;9016;53.582;10.062;2022-07-29T02:43:05;101873.72;;;15.88;66.12
17785;BME280;9016;53.582;10.062;2022-07-29T02:45:34;101865.56;;;15.90;66.12
17785;BME280;9016;53.582;10.062;2022-07-29T02:48:07;101874.78;;;16.00;65.60
17785;BME280;9016;53.582;10.062;2022-07-29T02:50:43;101874.88;;;15.99;66.23
17785;BME280;9016;53.582;10.062;2022-07-29T02:53:15;101878.81;;;15.93;66.36
17785;BME280;9016;53.582;10.062;2022-07-29T02:55:48;101872.03;;;15.88;66.16
17785;BME280;9016;53.582;10.062;2022-07-29T02:58:21;101867.00;;;15.96;66.68
17785;BME280;9016;53.582;10.062;2022-07-29T03:00:56;101866.44;;;15.91;66.49
17785;BME280;9016;53.582;10.062;2022-07-29T03:03:33;101858.19;;;15.94;66.49
17785;BME280;9016;53.582;10.062;2022-07-29T03:06:04;101857.44;;;15.92;66.26
17785;BME280;9016;53.582;10.062;2022-07-29T03:08:54;101846.75;;;15.90;66.90
17785;BME280;9016;53.582;10.062;2022-07-29T03:11:23;101853.88;;;15.91;66.85
17785;BME280;9016;53.582;10.062;2022-07-29T03:14:12;101856.84;;;15.86;66.95
17785;BME280;9016;53.582;10.062;2022-07-29T03:16:41;101859.13;;;15.93;66.72
17785;BME280;9016;53.582;10.062;2022-07-29T03:19:11;101866.81;;;15.99;66.33
17785;BME280;9016;53.582;10.062;2022-07-29T03:21:39;101854.72;;;15.92;66.72
17785;BME280;9016;53.582;10.062;2022-07-29T03:24:07;101864.91;;;15.86;67.06
17785;BME280;9016;53.582;10.062;2022-07-29T03:26:37;101860.94;;;15.92;67.03
17785;BME280;9016;53.582;10.062;2022-07-29T03:29:05;101866.91;;;15.97;66.53
17785;BME280;9016;53.582;10.062;2022-07-29T03:31:39;101861.88;;;16.05;66.61
17785;BME280;9016;53.582;10.062;2022-07-29T03:34:10;101859.00;;;16.08;66.23
17785;BME280;9016;53.582;10.062;2022-07-29T03:36:39;101846.22;;;16.12;66.06
17785;BME280;9016;53.582;10.062;2022-07-29T03:39:09;101852.88;;;16.06;66.46
17785;BME280;9016;53.582;10.062;2022-07-29T03:41:38;101849.59;;;16.01;66.64
17785;BME280;9016;53.582;10.062;2022-07-29T03:44:08;101854.59;;;16.07;66.53
17785;BME280;9016;53.582;10.062;2022-07-29T03:46:39;101856.31;;;16.08;66.24
17785;BME280;9016;53.582;10.062;2022-07-29T03:49:08;101854.31;;;16.12;66.09
17785;BME280;9016;53.582;10.062;2022-07-29T03:51:38;101847.84;;;16.14;65.90
17785;BME280;9016;53.582;10.062;2022-07-29T03:54:07;101854.19;;;16.13;66.52
17785;BME280;9016;53.582;10.062;2022-07-29T03:56:38;101844.31;;;16.14;66.11
17785;BME280;9016;53.582;10.062;2022-07-29T03:59:07;101847.53;;;16.19;66.21
17785;BME280;9016;53.582;10.062;2022-07-29T04:01:36;101842.16;;;16.19;65.94
17785;BME280;9016;53.582;10.062;2022-07-29T04:04:06;101849.25;;;16.20;66.12
17785;BME280;9016;53.582;10.062;2022-07-29T04:06:40;101858.34;;;16.31;65.11
17785;BME280;9016;53.582;10.062;2022-07-29T04:09:08;101849.72;;;16.26;65.84
17785;BME280;9016;53.582;10.062;2022-07-29T04:11:38;101854.19;;;16.40;65.07
17785;BME280;9016;53.582;10.062;2022-07-29T04:14:27;101858.91;;;16.36;65.02
17785;BME280;9016;53.582;10.062;2022-07-29T04:16:55;101853.63;;;16.35;65.48
17785;BME280;9016;53.582;10.062;2022-07-29T04:19:25;101853.78;;;16.46;65.17
17785;BME280;9016;53.582;10.062;2022-07-29T04:21:55;101850.81;;;16.50;65.15
17785;BME280;9016;53.582;10.062;2022-07-29T04:24:22;101847.38;;;16.48;65.19
17785;BME280;9016;53.582;10.062;2022-07-29T04:26:51;101860.72;;;16.50;65.08
17785;BME280;9016;53.582;10.062;2022-07-29T04:29:19;101846.84;;;16.56;64.94
17785;BME280;9016;53.582;10.062;2022-07-29T04:31:47;101851.38;;;16.55;64.42
17785;BME280;9016;53.582;10.062;2022-07-29T04:34:16;101843.19;;;16.57;64.71
17785;BME280;9016;53.582;10.062;2022-07-29T04:36:45;101849.22;;;16.60;64.47
17785;BME280;9016;53.582;10.062;2022-07-29T04:39:15;101839.75;;;16.67;64.55
17785;BME280;9016;53.582;10.062;2022-07-29T04:41:49;101848.41;;;16.72;64.54
17785;BME280;9016;53.582;10.062;2022-07-29T04:44:20;101839.88;;;16.66;64.56
17785;BME280;9016;53.582;10.062;2022-07-29T04:46:55;101839.56;;;16.70;64.44
17785;BME280;9016;53.582;10.062;2022-07-29T04:49:25;101840.00;;;16.77;63.98
17785;BME280;9016;53.582;10.062;2022-07-29T04:51:56;101843.03;;;16.72;64.15
17785;BME280;9016;53.582;10.062;2022-07-29T04:54:26;101844.66;;;16.88;63.88
17785;BME280;9016;53.582;10.062;2022-07-29T04:56:56;101841.13;;;17.00;63.53
17785;BME280;9016;53.582;10.062;2022-07-29T04:59:24;101854.69;;;17.11;63.59
17785;BME280;9016;53.582;10.062;2022-07-29T05:01:53;101850.41;;;17.21;62.76
17785;BME280;9016;53.582;10.062;2022-07-29T05:04:21;101844.25;;;17.19;63.25
17785;BME280;9016;53.582;10.062;2022-07-29T05:06:49;101849.00;;;17.28;62.71
17785;BME280;9016;53.582;10.062;2022-07-29T05:09:17;101850.16;;;17.36;62.67
17785;BME280;9016;53.582;10.062;2022-07-29T05:11:46;101845.78;;;17.48;61.96
17785;BME280;9016;53.582;10.062;2022-07-29T05:14:15;101850.69;;;17.41;62.08
17785;BME280;9016;53.582;10.062;2022-07-29T05:16:43;101853.19;;;17.44;62.19
17785;BME280;9016;53.582;10.062;2022-07-29T05:19:11;101858.19;;;17.50;62.44
17785;BME280;9016;53.582;10.062;2022-07-29T05:21:40;101857.19;;;17.64;61.68
17785;BME280;9016;53.582;10.062;2022-07-29T05:24:08;101857.50;;;17.72;61.21
17785;BME280;9016;53.582;10.062;2022-07-29T05:26:36;101852.06;;;17.85;61.07
17785;BME280;9016;53.582;10.062;2022-07-29T05:29:06;101851.63;;;17.91;60.81
17785;BME280;9016;53.582;10.062;2022-07-29T05:31:53;101852.03;;;17.97;60.78
17785;BME280;9016;53.582;10.062;2022-07-29T05:34:21;101862.22;;;18.17;60.22
17785;BME280;9016;53.582;10.062;2022-07-29T05:36:50;101862.63;;;18.24;59.74
17785;BME280;9016;53.582;10.062;2022-07-29T05:39:18;101872.38;;;18.37;59.97
17785;BME280;9016;53.582;10.062;2022-07-29T05:41:46;101866.16;;;18.37;59.39
17785;BME280;9016;53.582;10.062;2022-07-29T05:44:19;101863.53;;;18.35;58.74
17785;BME280;9016;53.582;10.062;2022-07-29T05:46:50;101862.06;;;18.31;59.39
17785;BME280;9016;53.582;10.062;2022-07-29T05:49:18;101862.66;;;18.47;58.90
17785;BME280;9016;53.582;10.062;2022-07-29T05:51:53;101864.25;;;18.73;58.66
17785;BME280;9016;53.582;10.062;2022-07-29T05:54:20;101868.06;;;18.82;58.32
17785;BME280;9016;53.582;10.062;2022-07-29T05:56:48;101870.19;;;18.90;57.98
17785;BME280;9016;53.582;10.062;2022-07-29T05:59:16;101869.34;;;19.00;57.49
17785;BME280;9016;53.582;10.062;2022-07-29T06:01:47;101873.44;;;19.17;57.09
17785;BME280;9016;53.582;10.062;2022-07-29T06:04:15;101862.44;;;19.31;56.25
17785;BME280;9016;53.582;10.062;2022-07-29T06:06:43;101861.13;;;19.36;56.33
17785;BME280;9016;53.582;10.062;2022-07-29T06:09:12;101852.50;;;19.42;56.88
17785;BME280;9016;53.582;10.062;2022-07-29T06:11:40;101860.41;;;19.56;56.57
17785;BME280;9016;53.582;10.062;2022-07-29T06:14:08;101860.75;;;19.63;55.76
17785;BME280;9016;53.582;10.062;2022-07-29T06:16:36;101859.25;;;19.48;56.17
17785;BME280;9016;53.582;10.062;2022-07-29T06:19:05;101863.09;;;19.67;55.90
17785;BME280;9016;53.582;10.062;2022-07-29T06:21:35;101864.66;;;19.81;56.13
17785;BME280;9016;53.582;10.062;2022-07-29T06:24:07;101860.59;;;19.98;55.59
17785;BME280;9016;53.582;10.062;2022-07-29T06:26:35;101858.50;;;20.23;55.32
17785;BME280;9016;53.582;10.062;2022-07-29T06:29:05;101855.22;;;20.40;54.77
17785;BME280;9016;53.582;10.062;2022-07-29T06:31:34;101850.03;;;20.48;53.91
17785;BME280;9016;53.582;10.062;2022-07-29T06:34:02;101846.44;;;20.59;53.61
17785;BME280;9016;53.582;10.062;2022-07-29T06:36:34;101846.88;;;20.75;53.12
17785;BME280;9016;53.582;10.062;2022-07-29T06:39:04;101850.16;;;20.79;52.65
17785;BME280;9016;53.582;10.062;2022-07-29T06:41:33;101848.50;;;20.87;52.48
17785;BME280;9016;53.582;10.062;2022-07-29T06:44:02;101848.56;;;21.08;51.83
17785;BME280;9016;53.582;10.062;2022-07-29T06:46:31;101848.56;;;21.38;50.35
17785;BME280;9016;53.582;10.062;2022-07-29T06:48:59;101845.88;;;21.68;49.23
17785;BME280;9016;53.582;10.062;2022-07-29T06:51:28;101845.84;;;22.76;47.61
17785;BME280;9016;53.582;10.062;2022-07-29T06:53:58;101846.25;;;22.91;46.68
17785;BME280;9016;53.582;10.062;2022-07-29T06:56:29;101850.53;;;22.84;46.73
17785;BME280;9016;53.582;10.062;2022-07-29T06:59:06;101845.69;;;22.68;47.67
17785;BME280;9016;53.582;10.062;2022-07-29T07:01:35;101841.69;;;22.82;47.11
17785;BME280;9016;53.582;10.062;2022-07-29T07:04:03;101846.53;;;22.78;47.38
17785;BME280;9016;53.582;10.062;2022-07-29T07:06:31;101838.06;;;23.00;47.60
17785;BME280;9016;53.582;10.062;2022-07-29T07:09:01;101835.97;;;23.50;45.93
17785;BME280;9016;53.582;10.062;2022-07-29T07:11:29;101831.13;;;23.81;44.89
17785;BME280;9016;53.582;10.062;2022-07-29T07:13:57;101840.78;;;23.66;44.58
17785;BME280;9016;53.582;10.062;2022-07-29T07:16:30;101837.91;;;23.94;44.10
17785;BME280;9016;53.582;10.062;2022-07-29T07:18:59;101836.53;;;23.90;44.25
17785;BME280;9016;53.582;10.062;2022-07-29T07:21:26;101841.72;;;23.74;44.31
17785;BME280;9016;53.582;10.062;2022-07-29T07:23:56;101827.72;;;23.23;44.91
17785;BME280;9016;53.582;10.062;2022-07-29T07:26:26;101826.44;;;23.17;45.36
17785;BME280;9016;53.582;10.062;2022-07-29T07:28:54;101823.72;;;23.17;45.43
17785;BME280;9016;53.582;10.062;2022-07-29T07:31:22;101828.34;;;23.07;45.73
17785;BME280;9016;53.582;10.062;2022-07-29T07:33:50;101830.50;;;23.04;46.40
17785;BME280;9016;53.582;10.062;2022-07-29T07:36:20;101827.94;;;22.93;46.69
17785;BME280;9016;53.582;10.062;2022-07-29T07:38:48;101824.38;;;22.83;46.82
17785;BME280;9016;53.582;10.062;2022-07-29T07:41:16;101828.53;;;22.68;47.09
17785;BME280;9016;53.582;10.062;2022-07-29T07:43:46;101825.81;;;22.58;47.66
17785;BME280;9016;53.582;10.062;2022-07-29T07:46:14;101827.41;;;22.80;47.39
17785;BME280;9016;53.582;10.062;2022-07-29T07:48:42;101822.94;;;22.88;46.96
17785;BME280;9016;53.582;10.062;2022-07-29T07:51:11;101826.22;;;22.92;47.08
17785;BME280;9016;53.582;10.062;2022-07-29T07:53:39;101822.69;;;22.63;47.30
17785;BME280;9016;53.582;10.062;2022-07-29T07:56:07;101825.09;;;22.66;47.20
17785;BME280;9016;53.582;10.062;2022-07-29T07:58:38;101820.22;;;22.88;46.58
17785;BME280;9016;53.582;10.062;2022-07-29T08:01:08;101819.72;;;23.21;46.24
17785;BME280;9016;53.582;10.062;2022-07-29T08:03:37;101824.34;;;23.57;45.73
17785;BME280;9016;53.582;10.062;2022-07-29T08:06:06;101817.53;;;23.98;44.50
17785;BME280;9016;53.582;10.062;2022-07-29T08:08:34;101821.75;;;24.37;43.84
17785;BME280;9016;53.582;10.062;2022-07-29T08:11:02;101820.19;;;24.88;42.16
17785;BME280;9016;53.582;10.062;2022-07-29T08:13:36;101822.50;;;25.26;41.64
17785;BME280;9016;53.582;10.062;2022-07-29T08:16:06;101813.50;;;25.93;40.02
17785;BME280;9016;53.582;10.062;2022-07-29T08:18:43;101817.13;;;26.83;38.40
17785;BME280;9016;53.582;10.062;2022-07-29T08:21:12;101817.56;;;27.82;36.81
17785;BME280;9016;53.582;10.062;2022-07-29T08:23:41;101810.31;;;28.58;34.92
17785;BME280;9016;53.582;10.062;2022-07-29T08:26:23;101807.97;;;29.29;34.13
17785;BME280;9016;53.582;10.062;2022-07-29T08:28:51;101797.88;;;30.66;32.63
17785;BME280;9016;53.582;10.062;2022-07-29T08:31:20;101809.03;;;31.96;30.23
17785;BME280;9016;53.582;10.062;2022-07-29T08:33:48;101805.41;;;32.56;28.90
17785;BME280;9016;53.582;10.062;2022-07-29T08:36:16;101804.38;;;32.70;28.63
17785;BME280;9016;53.582;10.062;2022-07-29T08:38:44;101804.69;;;33.78;28.59
17785;BME280;9016;53.582;10.062;2022-07-29T08:41:12;101809.53;;;33.89;26.93
17785;BME280;9016;53.582;10.062;2022-07-29T08:43:40;101806.44;;;34.17;27.45
17785;BME280;9016;53.582;10.062;2022-07-29T08:46:08;101808.28;;;34.67;26.74
17785;BME280;9016;53.582;10.062;2022-07-29T08:48:38;101808.91;;;34.69;26.13
17785;BME280;9016;53.582;10.062;2022-07-29T08:51:07;101799.56;;;34.95;26.20
17785;BME280;9016;53.582;10.062;2022-07-29T08:53:36;101808.91;;;35.01;26.10
17785;BME280;9016;53.582;10.062;2022-07-29T08:56:04;101799.25;;;35.28;25.73
17785;BME280;9016;53.582;10.062;2022-07-29T08:58:33;101809.72;;;34.39;26.00
17785;BME280;9016;53.582;10.062;2022-07-29T09:01:04;101801.31;;;34.27;26.87
17785;BME280;9016;53.582;10.062;2022-07-29T09:03:40;101794.22;;;35.43;24.62
17785;BME280;9016;53.582;10.062;2022-07-29T09:06:09;101797.69;;;35.74;24.08
17785;BME280;9016;53.582;10.062;2022-07-29T09:08:40;101797.47;;;35.76;24.32
17785;BME280;9016;53.582;10.062;2022-07-29T09:11:09;101794.28;;;36.09;23.79
17785;BME280;9016;53.582;10.062;2022-07-29T09:13:38;101796.81;;;36.10;23.37
17785;BME280;9016;53.582;10.062;2022-07-29T09:16:06;101788.91;;;35.96;23.67
17785;BME280;9016;53.582;10.062;2022-07-29T09:18:36;101796.06;;;35.67;24.32
17785;BME280;9016;53.582;10.062;2022-07-29T09:21:07;101795.31;;;34.68;24.62
17785;BME280;9016;53.582;10.062;2022-07-29T09:24:00;101794.09;;;34.20;25.28
17785;BME280;9016;53.582;10.062;2022-07-29T09:26:29;101785.19;;;33.60;25.64
17785;BME280;9016;53.582;10.062;2022-07-29T09:28:58;101788.91;;;34.30;25.88
17785;BME280;9016;53.582;10.062;2022-07-29T09:31:34;101782.00;;;33.37;26.22
17785;BME280;9016;53.582;10.062;2022-07-29T09:34:05;101786.38;;;32.07;27.84
17785;BME280;9016;53.582;10.062;2022-07-29T09:36:40;101784.59;;;31.18;29.11
17785;BME280;9016;53.582;10.062;2022-07-29T09:39:08;101782.81;;;30.83;29.72
17785;BME280;9016;53.582;10.062;2022-07-29T09:41:45;101780.81;;;30.14;30.16
17785;BME280;9016;53.582;10.062;2022-07-29T09:44:13;101780.13;;;29.47;31.29
17785;BME280;9016;53.582;10.062;2022-07-29T09:46:56;101785.69;;;28.73;32.23
17785;BME280;9016;53.582;10.062;2022-07-29T09:49:25;101786.09;;;28.39;32.21
17785;BME280;9016;53.582;10.062;2022-07-29T09:52:15;101791.72;;;28.46;32.78
17785;BME280;9016;53.582;10.062;2022-07-29T09:54:43;101782.81;;;28.44;32.86
17785;BME280;9016;53.582;10.062;2022-07-29T09:57:22;101787.56;;;28.50;33.29
17785;BME280;9016;53.582;10.062;2022-07-29T09:59:57;101785.16;;;28.55;33.45
17785;BME280;9016;53.582;10.062;2022-07-29T10:02:30;101795.06;;;28.33;33.00
17785;BME280;9016;53.582;10.062;2022-07-29T10:04:59;101802.53;;;28.39;32.55
17785;BME280;9016;53.582;10.062;2022-07-29T10:07:43;101795.56;;;28.37;32.89
17785;BME280;9016;53.582;10.062;2022-07-29T10:10:20;101786.94;;;28.40;32.91
17785;BME280;9016;53.582;10.062;2022-07-29T10:12:52;101791.16;;;28.27;32.26
17785;BME280;9016;53.582;10.062;2022-07-29T10:15:22;101788.78;;;27.94;32.87
17785;BME280;9016;53.582;10.062;2022-07-29T10:17:50;101784.97;;;27.64;33.46
17785;BME280;9016;53.582;10.062;2022-07-29T10:20:19;101775.69;;;27.65;32.93
17785;BME280;9016;53.582;10.062;2022-07-29T10:22:49;101777.34;;;27.82;32.94
17785;BME280;9016;53.582;10.062;2022-07-29T10:25:20;101769.63;;;27.94;32.49
17785;BME280;9016;53.582;10.062;2022-07-29T10:27:48;101764.69;;;27.81;32.64
17785;BME280;9016;53.582;10.062;2022-07-29T10:30:18;101763.03;;;27.72;32.93
17785;BME280;9016;53.582;10.062;2022-07-29T10:33:10;101767.22;;;27.52;33.24
17785;BME280;9016;53.582;10.062;2022-07-29T10:36:07;101762.44;;;27.46;33.55
17785;BME280;9016;53.582;10.062;2022-07-29T10:38:53;101764.69;;;27.43;32.98
17785;BME280;9016;53.582;10.062;2022-07-29T10:41:43;101762.47;;;27.38;33.01
17785;BME280;9016;53.582;10.062;2022-07-29T10:44:18;101754.06;;;27.39;33.19
17785;BME280;9016;53.582;10.062;2022-07-29T10:46:49;101757.59;;;27.56;32.96
17785;BME280;9016;53.582;10.062;2022-07-29T10:49:19;101751.00;;;27.43;33.59
17785;BME280;9016;53.582;10.062;2022-07-29T10:51:55;101752.19;;;27.48;33.75
17785;BME280;9016;53.582;10.062;2022-07-29T10:54:46;101754.25;;;27.46;33.85
17785;BME280;9016;53.582;10.062;2022-07-29T10:57:25;101753.94;;;27.33;33.91
17785;BME280;9016;53.582;10.062;2022-07-29T11:00:28;101758.38;;;27.34;34.33
17785;BME280;9016;53.582;10.062;2022-07-29T11:02:57;101741.47;;;27.22;33.94
17785;BME280;9016;53.582;10.062;2022-07-29T11:05:26;101755.66;;;27.26;33.95
17785;BME280;9016;53.582;10.062;2022-07-29T11:08:22;101751.88;;;27.19;33.01
17785;BME280;9016;53.582;10.062;2022-07-29T11:11:37;101747.09;;;27.37;33.22
17785;BME280;9016;53.582;10.062;2022-07-29T11:14:16;101749.53;;;28.01;33.25
17785;BME280;9016;53.582;10.062;2022-07-29T11:17:09;101748.38;;;27.96;32.61
17785;BME280;9016;53.582;10.062;2022-07-29T11:19:39;101742.56;;;28.13;32.57
17785;BME280;9016;53.582;10.062;2022-07-29T11:22:31;101742.44;;;28.52;32.17
17785;BME280;9016;53.582;10.062;2022-07-29T11:25:12;101738.50;;;28.77;31.63
17785;BME280;9016;53.582;10.062;2022-07-29T11:27:44;101732.25;;;28.83;31.72
17785;BME280;9016;53.582;10.062;2022-07-29T11:30:13;101739.66;;;28.97;31.56
17785;BME280;9016;53.582;10.062;2022-07-29T11:32:43;101743.59;;;29.17;31.47
17785;BME280;9016;53.582;10.062;2022-07-29T11:35:16;101729.19;;;29.15;31.39
17785;BME280;9016;53.582;10.062;2022-07-29T11:38:24;101728.28;;;28.86;30.75
17785;BME280;9016;53.582;10.062;2022-07-29T11:41:19;101723.19;;;28.38;31.21
17785;BME280;9016;53.582;10.062;2022-07-29T11:43:50;101720.31;;;28.16;31.30
17785;BME280;9016;53.582;10.062;2022-07-29T11:46:44;101724.56;;;28.19;31.54
17785;BME280;9016;53.582;10.062;2022-07-29T11:49:13;101723.72;;;28.18;32.40
17785;BME280;9016;53.582;10.062;2022-07-29T11:51:57;101716.16;;;27.98;32.25
17785;BME280;9016;53.582;10.062;2022-07-29T11:54:31;101717.34;;;27.95;32.60
17785;BME280;9016;53.582;10.062;2022-07-29T11:57:20;101720.28;;;27.94;31.82
17785;BME280;9016;53.582;10.062;2022-07-29T12:00:04;101708.13;;;27.96;32.14
17785;BME280;9016;53.582;10.062;2022-07-29T12:02:39;101708.41;;;28.01;32.23
17785;BME280;9016;53.582;10.062;2022-07-29T12:05:36;101710.19;;;27.86;32.93
17785;BME280;9016;53.582;10.062;2022-07-29T12:08:16;101702.84;;;28.09;33.06
17785;BME280;9016;53.582;10.062;2022-07-29T12:10:47;101705.19;;;27.98;32.77
17785;BME280;9016;53.582;10.062;2022-07-29T12:13:17;101691.91;;;28.09;32.12
17785;BME280;9016;53.582;10.062;2022-07-29T12:15:56;101690.75;;;28.26;32.08
17785;BME280;9016;53.582;10.062;2022-07-29T12:18:25;101686.94;;;28.13;32.34
17785;BME280;9016;53.582;10.062;2022-07-29T12:21:00;101695.44;;;27.87;32.82
17785;BME280;9016;53.582;10.062;2022-07-29T12:23:30;101688.19;;;28.02;32.57
17785;BME280;9016;53.582;10.062;2022-07-29T12:26:03;101684.63;;;28.02;32.47
17785;BME280;9016;53.582;10.062;2022-07-29T12:28:37;101689.28;;;28.16;32.38
17785;BME280;9016;53.582;10.062;2022-07-29T12:31:12;101675.69;;;28.22;31.84
17785;BME280;9016;53.582;10.062;2022-07-29T12:34:00;101688.72;;;28.20;32.46
17785;BME280;9016;53.582;10.062;2022-07-29T12:36:29;101687.91;;;28.20;32.08
17785;BME280;9016;53.582;10.062;2022-07-29T12:38:57;101679.63;;;28.05;32.18
17785;BME280;9016;53.582;10.062;2022-07-29T12:41:27;101687.16;;;28.03;31.61
17785;BME280;9016;53.582;10.062;2022-07-29T12:43:55;101681.44;;;28.13;31.91
17785;BME280;9016;53.582;10.062;2022-07-29T12:46:25;101669.53;;;28.20;31.62
17785;BME280;9016;53.582;10.062;2022-07-29T12:48:54;101676.25;;;27.95;31.84
17785;BME280;9016;53.582;10.062;2022-07-29T12:51:28;101682.59;;;27.96;32.00
17785;BME280;9016;53.582;10.062;2022-07-29T12:54:06;101675.94;;;27.90;31.42
17785;BME280;9016;53.582;10.062;2022-07-29T12:56:35;101685.16;;;27.67;31.94
17785;BME280;9016;53.582;10.062;2022-07-29T12:59:15;101689.81;;;27.58;31.45
17785;BME280;9016;53.582;10.062;2022-07-29T13:01:47;101682.44;;;27.59;31.93
17785;BME280;9016;53.582;10.062;2022-07-29T13:04:25;101666.53;;;27.85;31.29
17785;BME280;9016;53.582;10.062;2022-07-29T13:07:01;101666.88;;;28.12;31.67
17785;BME280;9016;53.582;10.062;2022-07-29T13:09:39;101660.16;;;28.15;30.70
17785;BME280;9016;53.582;10.062;2022-07-29T13:12:08;101663.09;;;28.13;30.87
17785;BME280;9016;53.582;10.062;2022-07-29T13:14:38;101655.91;;;28.12;30.03
17785;BME280;9016;53.582;10.062;2022-07-29T13:17:10;101654.94;;;28.05;29.56
17785;BME280;9016;53.582;10.062;2022-07-29T13:19:39;101660.47;;;27.97;29.94
17785;BME280;9016;53.582;10.062;2022-07-29T13:22:08;101658.66;;;28.12;29.88